Time;durP1;ratioP1;P1;durP2;ratioP2;P2;SDS_P1;SDS_P2;PMS_P1;PMS_P2;Temp;Humidity;BMP_temperature;BMP_pressure;BME280_temperature;BME280_humidity;BME280_pressure;Samples;Min_cycle;Max_cycle;Signal;HPM_P1;HPM_P2
2022/05/18 00:02:24;;;;;;;3.40;3.10;;;;;;;20.97;52.32;97924.16;5057101;28;20425;-72
2022/05/18 00:04:49;;;;;;;5.80;2.80;;;;;;;20.98;52.43;97923.16;5049715;28;20432;-72
2022/05/18 00:07:15;;;;;;;8.70;2.83;;;;;;;20.87;52.19;97921.09;5058939;28;20209;-72
2022/05/18 00:09:40;;;;;;;4.20;3.20;;;;;;;20.86;52.30;97922.91;5049654;28;20730;-72
2022/05/18 00:12:06;;;;;;;5.27;3.60;;;;;;;20.71;52.74;97920.38;5055569;28;20183;-72
2022/05/18 00:14:32;;;;;;;6.53;2.80;;;;;;;20.80;52.81;97922.88;5050882;28;20183;-70
2022/05/18 00:17:00;;;;;;;4.40;2.93;;;;;;;20.92;52.44;97923.13;5058255;28;20444;-72
2022/05/18 00:19:25;;;;;;;4.23;2.90;;;;;;;20.92;52.19;97931.13;5050364;28;20249;-73
2022/05/18 00:21:51;;;;;;;4.60;2.90;;;;;;;20.90;52.04;97933.16;5049550;28;20426;-73
2022/05/18 00:24:16;;;;;;;5.30;3.10;;;;;;;20.80;52.41;97928.22;5050149;28;20190;-74
2022/05/18 00:26:42;;;;;;;5.00;2.80;;;;;;;20.73;52.58;97930.81;5050514;28;20249;-73
2022/05/18 00:29:07;;;;;;;4.53;3.23;;;;;;;20.75;52.40;97936.00;5050312;28;20179;-72
2022/05/18 00:31:33;;;;;;;6.60;3.10;;;;;;;20.77;52.21;97928.63;5062931;28;20179;-73
2022/05/18 00:33:58;;;;;;;4.70;3.57;;;;;;;20.70;52.27;97928.59;5053041;28;20179;-74
2022/05/18 00:36:24;;;;;;;5.17;3.30;;;;;;;20.70;52.67;97940.03;5053475;28;20195;-73
2022/05/18 00:38:49;;;;;;;5.63;3.40;;;;;;;20.59;52.71;97937.97;5050380;28;20227;-72
2022/05/18 00:41:19;;;;;;;7.60;2.80;;;;;;;20.49;52.93;97938.31;5050164;28;20179;-73
2022/05/18 00:43:44;;;;;;;5.80;2.80;;;;;;;20.58;52.78;97938.16;5050565;28;20197;-73
2022/05/18 00:46:12;;;;;;;4.87;3.00;;;;;;;20.49;52.79;97940.19;5048991;28;20948;-73
2022/05/18 00:48:39;;;;;;;5.33;3.43;;;;;;;20.45;53.29;97936.25;5050096;28;20588;-73
2022/05/18 00:51:13;;;;;;;4.13;3.07;;;;;;;20.31;53.56;97938.03;5048868;28;20426;-71
2022/05/18 00:53:43;;;;;;;3.13;2.90;;;;;;;20.30;53.07;97939.88;5051333;28;20425;-72
2022/05/18 00:56:14;;;;;;;3.23;2.77;;;;;;;20.34;53.11;97935.81;5052668;28;20456;-72
2022/05/18 00:58:54;;;;;;;3.90;3.50;;;;;;;20.32;53.24;97927.19;5053825;28;20425;-72
2022/05/18 01:01:19;;;;;;;3.70;3.40;;;;;;;20.23;53.60;97933.69;5055003;28;20440;-73
2022/05/18 01:03:48;;;;;;;6.90;2.97;;;;;;;20.30;53.50;97929.22;5058285;28;20430;-72
2022/05/18 01:06:16;;;;;;;3.83;3.13;;;;;;;20.06;54.04;97927.88;5052185;28;20202;-72
2022/05/18 01:09:04;;;;;;;3.73;3.10;;;;;;;20.09;53.99;97928.31;5053739;28;20433;-72
2022/05/18 01:11:35;;;;;;;5.33;3.10;;;;;;;20.10;54.07;97926.44;5046205;28;20421;-71
2022/05/18 01:14:02;;;;;;;3.40;2.97;;;;;;;20.10;53.96;97923.78;5061857;28;20439;-73
2022/05/18 01:16:28;;;;;;;4.40;3.03;;;;;;;20.09;54.00;97932.81;5048862;28;20452;-72
2022/05/18 01:18:54;;;;;;;5.53;3.27;;;;;;;20.10;53.92;97932.63;5057098;28;20480;-72
2022/05/18 01:21:20;;;;;;;6.40;3.60;;;;;;;20.15;53.91;97936.53;5050498;28;20437;-71
2022/05/18 01:23:54;;;;;;;3.63;2.87;;;;;;;20.12;53.87;97937.72;5053521;28;20443;-72
2022/05/18 01:26:44;;;;;;;5.10;3.27;;;;;;;20.13;53.76;97935.91;5051923;28;20214;-76
2022/05/18 01:29:10;;;;;;;3.27;2.97;;;;;;;20.07;54.01;97940.97;5035581;28;20429;-72
2022/05/18 01:31:44;;;;;;;4.80;3.20;;;;;;;20.06;53.64;97949.97;5057979;28;20429;-73
2022/05/18 01:34:10;;;;;;;4.10;3.50;;;;;;;20.07;53.77;97948.16;5049816;28;20536;-73
2022/05/18 01:36:36;;;;;;;5.33;3.57;;;;;;;20.02;54.26;97948.75;5056521;28;20606;-73
2022/05/18 01:39:02;;;;;;;8.10;4.07;;;;;;;19.91;54.12;97941.31;5052811;28;20548;-72
2022/05/18 01:41:30;;;;;;;10.20;3.70;;;;;;;19.83;54.70;97939.56;5055072;28;20183;-72
2022/05/18 01:43:59;;;;;;;4.10;3.30;;;;;;;19.79;54.49;97949.75;5051923;28;20426;-72
2022/05/18 01:46:27;;;;;;;3.97;3.20;;;;;;;19.91;54.44;97955.41;5050135;28;20472;-72
2022/05/18 01:48:53;;;;;;;6.23;3.40;;;;;;;19.83;54.26;97950.22;5052989;28;20430;-74
2022/05/18 01:51:37;;;;;;;10.37;3.53;;;;;;;19.84;54.28;97959.00;5052712;28;20429;-72
2022/05/18 01:54:03;;;;;;;8.73;3.87;;;;;;;19.85;54.17;97961.47;5051173;28;20433;-72
2022/05/18 01:56:28;;;;;;;3.77;3.47;;;;;;;19.85;54.36;97960.66;5052811;28;20453;-72
2022/05/18 01:58:54;;;;;;;5.40;3.57;;;;;;;19.80;54.44;97962.03;5052979;28;20674;-73
2022/05/18 02:01:20;;;;;;;5.50;3.70;;;;;;;19.80;54.78;97959.38;5053948;28;20187;-72
2022/05/18 02:03:47;;;;;;;3.77;3.40;;;;;;;19.84;54.39;97964.31;5061010;28;20183;-74
2022/05/18 02:06:13;;;;;;;9.10;3.90;;;;;;;19.69;54.83;97959.91;5053240;28;20994;-72
2022/05/18 02:08:40;;;;;;;6.57;4.17;;;;;;;19.55;55.11;97955.50;5058781;28;21273;-73
2022/05/18 02:11:10;;;;;;;5.50;3.70;;;;;;;19.54;55.48;97954.69;5052425;28;20924;-74
2022/05/18 02:13:36;;;;;;;8.93;4.33;;;;;;;19.53;55.49;97955.69;5051637;28;20592;-73
2022/05/18 02:16:02;;;;;;;7.03;3.50;;;;;;;19.66;55.09;97947.00;5052222;28;21122;-72
2022/05/18 02:18:28;;;;;;;5.00;3.83;;;;;;;19.64;55.08;97941.88;5052468;28;20187;-71
2022/05/18 02:20:54;;;;;;;5.70;3.93;;;;;;;19.65;55.11;97942.72;5060698;28;20522;-71
2022/05/18 02:23:19;;;;;;;5.37;3.90;;;;;;;19.66;55.10;97947.00;5052206;28;20195;-73
2022/05/18 02:25:45;;;;;;;4.20;3.73;;;;;;;19.55;55.60;97952.84;5052361;28;20321;-71
2022/05/18 02:28:10;;;;;;;9.37;4.30;;;;;;;19.58;55.36;97955.13;5051929;28;20186;-72
2022/05/18 02:30:36;;;;;;;4.10;3.70;;;;;;;19.56;55.38;97952.66;5052451;28;20262;-72
2022/05/18 02:33:01;;;;;;;5.80;4.10;;;;;;;19.47;55.43;97957.28;5059991;28;20194;-73
2022/05/18 02:35:27;;;;;;;11.23;4.10;;;;;;;19.45;55.08;97954.00;5054389;28;20191;-72
2022/05/18 02:37:52;;;;;;;4.00;3.70;;;;;;;19.44;55.57;97952.34;5051779;28;20202;-72
2022/05/18 02:40:18;;;;;;;8.60;4.10;;;;;;;19.51;55.47;97951.59;5055150;28;20201;-72
2022/05/18 02:42:43;;;;;;;4.93;3.80;;;;;;;19.46;55.78;97952.19;5052447;28;20198;-72
2022/05/18 02:45:09;;;;;;;4.73;3.70;;;;;;;19.51;55.46;97956.91;5051822;28;20195;-73
2022/05/18 02:47:35;;;;;;;4.70;4.20;;;;;;;19.51;55.51;97959.56;5051749;28;20203;-72
2022/05/18 02:50:01;;;;;;;5.23;4.17;;;;;;;19.39;55.47;97964.56;5052216;28;20191;-72
2022/05/18 02:52:26;;;;;;;5.90;3.77;;;;;;;19.38;55.54;97973.56;5043818;28;20194;-71
2022/05/18 02:57:36;;;;;;;4.73;3.73;;;;;;;19.34;55.73;97981.09;5044875;28;20503;-73
2022/05/18 03:00:04;;;;;;;5.60;4.00;;;;;;;19.30;55.64;97978.00;5051546;28;20464;-73
2022/05/18 03:02:29;;;;;;;5.33;4.50;;;;;;;19.22;56.00;97983.41;5066555;28;20180;-74
2022/05/18 03:04:55;;;;;;;4.73;3.97;;;;;;;19.17;55.93;97983.97;5051617;28;20563;-74
2022/05/18 03:07:20;;;;;;;4.57;4.17;;;;;;;19.15;56.12;97974.56;5050718;28;20280;-73
2022/05/18 03:09:45;;;;;;;4.40;4.00;;;;;;;19.13;55.89;97984.53;5051581;28;20658;-74
2022/05/18 03:12:11;;;;;;;6.70;4.40;;;;;;;18.99;56.13;97983.59;5051362;28;20249;-71
2022/05/18 03:14:37;;;;;;;11.70;4.63;;;;;;;18.98;56.69;97985.41;5051606;28;20187;-71
2022/05/18 03:17:02;;;;;;;12.90;4.30;;;;;;;18.93;56.65;97986.94;5050053;28;20202;-73
2022/05/18 03:19:28;;;;;;;5.70;4.27;;;;;;;18.95;56.35;97983.16;5051140;28;20205;-73
2022/05/18 03:24:37;;;;;;;4.97;3.57;;;;;;;18.94;56.53;97985.97;5047393;28;20180;-72
2022/05/18 03:27:03;;;;;;;8.33;3.60;;;;;;;18.88;56.69;97991.00;5047348;28;20461;-73
2022/05/18 03:29:29;;;;;;;9.47;4.37;;;;;;;18.81;57.08;97989.28;5050041;28;20190;-72
2022/05/18 03:31:54;;;;;;;7.97;4.13;;;;;;;18.93;56.81;97986.94;5046410;28;20472;-72
2022/05/18 03:34:20;;;;;;;6.70;4.20;;;;;;;18.97;56.07;97983.75;5037212;28;20346;-73
2022/05/18 03:36:45;;;;;;;6.57;4.13;;;;;;;18.85;56.78;97988.72;5044104;28;20253;-73
2022/05/18 03:39:11;;;;;;;4.33;3.93;;;;;;;18.77;56.92;97990.66;5050405;28;20211;-71
2022/05/18 03:41:36;;;;;;;5.97;3.97;;;;;;;18.84;56.87;97995.03;5053819;28;20248;-72
2022/05/18 03:44:03;;;;;;;8.60;4.60;;;;;;;18.86;56.42;97995.69;5049931;28;20233;-73
2022/05/18 03:46:29;;;;;;;5.17;4.37;;;;;;;18.82;56.50;97998.91;5047503;28;20579;-72
2022/05/18 03:48:54;;;;;;;4.57;4.17;;;;;;;18.82;56.81;98002.38;5050783;28;20421;-73
2022/05/18 03:51:20;;;;;;;6.63;4.50;;;;;;;18.87;56.61;97999.97;5049652;28;20202;-73
2022/05/18 03:53:46;;;;;;;5.87;4.10;;;;;;;18.91;56.76;97996.94;5061548;28;20246;-71
2022/05/18 03:56:11;;;;;;;4.30;3.90;;;;;;;18.88;56.55;97996.31;5052322;28;20214;-72
2022/05/18 03:58:37;;;;;;;5.70;3.63;;;;;;;18.84;56.70;97984.41;5063671;28;20429;-71
2022/05/18 04:01:08;;;;;;;7.00;3.30;;;;;;;18.84;56.39;97991.53;5030821;28;20203;-73
2022/05/18 04:03:35;;;;;;;6.10;3.73;;;;;;;18.80;56.58;97991.09;5057700;28;20886;-73
2022/05/18 04:06:01;;;;;;;4.63;4.23;;;;;;;18.87;56.72;97999.97;5050922;28;21010;-76
2022/05/18 04:08:26;;;;;;;6.33;4.27;;;;;;;18.84;56.35;98002.16;5050262;28;20429;-72
2022/05/18 04:10:54;;;;;;;8.43;4.23;;;;;;;18.86;56.75;98005.47;5049767;28;20186;-72
2022/05/18 04:13:21;;;;;;;5.00;4.40;;;;;;;18.80;56.62;98009.69;5050416;28;20190;-73
2022/05/18 04:15:47;;;;;;;4.67;4.27;;;;;;;18.85;56.85;98014.44;5032614;28;20481;-71
2022/05/18 04:18:13;;;;;;;4.87;4.47;;;;;;;18.81;56.93;98016.66;5048990;28;20456;-71
2022/05/18 04:20:39;;;;;;;6.33;5.10;;;;;;;18.80;57.44;98009.69;5050282;28;20511;-72
2022/05/18 04:23:06;;;;;;;5.37;4.87;;;;;;;18.87;57.16;98009.78;5058023;28;20190;-72
2022/05/18 04:25:31;;;;;;;6.80;4.93;;;;;;;18.80;57.15;98015.00;5058380;28;20555;-72
2022/05/18 04:27:57;;;;;;;7.40;4.03;;;;;;;18.83;57.42;98021.78;5059396;28;20796;-73
2022/05/18 04:30:25;;;;;;;7.00;4.60;;;;;;;18.75;57.85;98027.19;5046752;28;20183;-74
2022/05/18 04:32:51;;;;;;;4.80;4.00;;;;;;;18.89;57.48;98021.03;5062060;28;20229;-73
2022/05/18 04:35:19;;;;;;;5.07;4.00;;;;;;;18.88;57.83;98025.53;5053869;28;20521;-74
2022/05/18 04:37:44;;;;;;;7.53;4.70;;;;;;;18.73;58.17;98024.72;5052460;28;20465;-72
2022/05/18 04:40:10;;;;;;;7.87;4.27;;;;;;;18.76;58.00;98024.38;5057928;28;20817;-73
2022/05/18 04:42:36;;;;;;;5.23;4.40;;;;;;;18.86;58.11;98024.06;5053994;28;20195;-73
2022/05/18 04:45:03;;;;;;;4.70;3.70;;;;;;;18.93;58.09;98026.78;5053729;28;20215;-72
2022/05/18 04:47:28;;;;;;;6.27;4.70;;;;;;;19.04;57.96;98026.34;5067542;28;20448;-72
2022/05/18 04:49:55;;;;;;;7.23;4.30;;;;;;;19.06;57.51;98028.81;5049409;28;20430;-72
2022/05/18 04:52:21;;;;;;;8.63;4.23;;;;;;;19.03;57.58;98030.00;5052073;28;20222;-72
2022/05/18 04:54:47;;;;;;;5.77;4.40;;;;;;;19.06;57.64;98036.78;5053534;28;20481;-73
2022/05/18 04:57:13;;;;;;;5.97;4.67;;;;;;;18.92;58.24;98030.44;5054426;28;20211;-72
2022/05/18 04:59:39;;;;;;;6.60;4.70;;;;;;;18.90;58.60;98043.13;5065883;28;20507;-73
2022/05/18 05:02:05;;;;;;;9.87;5.03;;;;;;;19.03;58.60;98045.94;5069127;28;20440;-73
2022/05/18 05:04:34;;;;;;;6.10;4.43;;;;;;;19.08;58.66;98043.56;5058397;28;20201;-72
2022/05/18 05:07:00;;;;;;;8.20;5.50;;;;;;;19.18;58.65;98045.94;5052116;28;20203;-73
2022/05/18 05:09:26;;;;;;;11.20;5.03;;;;;;;19.26;58.38;98055.63;5052678;28;20777;-72
2022/05/18 05:11:52;;;;;;;6.33;4.77;;;;;;;19.42;58.19;98054.56;5053037;28;20193;-73
2022/05/18 05:14:18;;;;;;;9.73;5.00;;;;;;;19.42;57.98;98044.75;5052588;28;20819;-73
2022/05/18 05:16:43;;;;;;;4.90;4.40;;;;;;;19.59;58.01;98049.81;5052855;28;20545;-72
2022/05/18 05:19:09;;;;;;;5.30;4.53;;;;;;;19.68;57.01;98054.00;5045604;28;20572;-72
2022/05/18 05:21:36;;;;;;;6.70;4.73;;;;;;;19.76;56.93;98045.06;5052958;28;20179;-72
2022/05/18 05:24:03;;;;;;;11.13;5.40;;;;;;;19.78;57.20;98054.50;5051366;28;20583;-74
2022/05/18 05:26:29;;;;;;;10.97;5.53;;;;;;;19.92;57.48;98060.78;5051405;28;20755;-73
2022/05/18 05:28:54;;;;;;;5.20;4.77;;;;;;;20.09;57.23;98055.22;5053073;28;20498;-74
2022/05/18 05:31:20;;;;;;;7.90;4.60;;;;;;;20.24;56.39;98061.25;5054921;28;20183;-74
2022/05/18 05:33:45;;;;;;;10.00;4.40;;;;;;;20.39;56.27;98060.31;5051770;28;20175;-73
2022/05/18 05:36:11;;;;;;;12.50;4.63;;;;;;;20.49;55.35;98062.63;5045081;28;20654;-73
2022/05/18 05:38:37;;;;;;;12.13;5.03;;;;;;;20.61;55.55;98063.75;5060836;28;20274;-73
2022/05/18 05:41:03;;;;;;;10.50;5.33;;;;;;;20.78;55.72;98066.13;5051175;28;20661;-74
2022/05/18 05:43:31;;;;;;;4.83;4.37;;;;;;;20.90;55.50;98058.38;5052662;28;20437;-73
2022/05/18 05:45:58;;;;;;;8.80;4.60;;;;;;;21.05;55.02;98059.06;5042474;28;20641;-72
2022/05/18 05:48:23;;;;;;;6.40;4.17;;;;;;;21.20;54.50;98063.44;5052685;28;20511;-73
2022/05/18 05:50:49;;;;;;;5.10;3.50;;;;;;;21.35;53.22;98060.59;5052991;28;20852;-71
2022/05/18 05:53:14;;;;;;;7.60;3.60;;;;;;;21.51;52.81;98068.22;5051700;28;20183;-70
2022/05/18 05:55:40;;;;;;;5.20;4.00;;;;;;;21.67;53.06;98072.38;5052888;28;20191;-71
2022/05/18 05:58:05;;;;;;;5.80;4.00;;;;;;;21.82;52.79;98072.19;5051976;28;20186;-70
2022/05/18 06:00:31;;;;;;;4.53;4.13;;;;;;;21.97;52.48;98072.00;5052936;28;20218;-72
2022/05/18 06:02:57;;;;;;;8.80;3.70;;;;;;;22.14;52.11;98072.41;5060927;28;20210;-72
2022/05/18 06:05:22;;;;;;;6.63;3.50;;;;;;;22.32;51.62;98081.63;5052209;28;20244;-72
2022/05/18 06:07:48;;;;;;;13.33;4.20;;;;;;;22.47;50.78;98071.59;5048867;28;20666;-71
2022/05/18 06:10:14;;;;;;;5.60;3.83;;;;;;;22.66;50.62;98071.78;5042335;28;20218;-70
2022/05/18 06:12:39;;;;;;;7.43;3.50;;;;;;;22.81;50.13;98080.34;5052603;28;20194;-70
2022/05/18 06:15:06;;;;;;;6.03;3.07;;;;;;;22.97;49.49;98084.41;5057556;28;20587;-72
2022/05/18 06:17:32;;;;;;;4.63;3.77;;;;;;;23.06;47.61;98076.97;5052299;28;20297;-70
2022/05/18 06:19:58;;;;;;;7.37;4.13;;;;;;;23.10;45.72;98080.06;5052433;28;20859;-69
2022/05/18 06:22:25;;;;;;;3.50;3.20;;;;;;;23.23;46.25;98080.03;5052360;28;20495;-72
2022/05/18 06:24:51;;;;;;;3.43;3.13;;;;;;;23.41;46.15;98075.81;5050579;28;20544;-69
2022/05/18 06:27:18;;;;;;;5.53;3.60;;;;;;;23.37;45.37;98083.44;5041721;28;20446;-70
2022/05/18 06:29:44;;;;;;;3.30;3.00;;;;;;;23.47;43.98;98080.31;5043577;28;20444;-72
2022/05/18 06:32:10;;;;;;;5.57;3.20;;;;;;;23.56;44.25;98072.88;5040778;28;20589;-71
2022/05/18 06:34:35;;;;;;;9.77;4.70;;;;;;;23.69;43.95;98083.47;5048460;28;20204;-71
2022/05/18 06:37:03;;;;;;;5.40;3.53;;;;;;;23.63;44.20;98082.47;5045129;28;20310;-71
2022/05/18 06:39:28;;;;;;;6.83;3.27;;;;;;;23.84;43.88;98085.00;5047378;28;20294;-70
2022/05/18 06:41:54;;;;;;;30.63;3.80;;;;;;;23.88;43.01;98080.88;5053027;28;20512;-68
2022/05/18 06:44:20;;;;;;;3.77;3.10;;;;;;;24.11;43.59;98083.00;5043965;28;20190;-72
2022/05/18 06:46:47;;;;;;;4.00;2.97;;;;;;;24.33;43.04;98082.59;5052784;28;20603;-71
2022/05/18 06:49:13;;;;;;;4.10;3.40;;;;;;;24.38;42.02;98088.94;5058189;28;20508;-72
2022/05/18 06:51:40;;;;;;;4.00;3.33;;;;;;;24.45;41.91;98085.34;5058603;28;20525;-71
2022/05/18 06:54:06;;;;;;;3.50;3.20;;;;;;;24.57;42.23;98090.81;5049781;28;20643;-71
2022/05/18 06:56:34;;;;;;;3.23;2.93;;;;;;;24.34;42.33;98095.75;5059655;28;20511;-71
2022/05/18 06:59:00;;;;;;;4.20;3.10;;;;;;;24.56;41.92;98083.81;5051622;28;20496;-70
2022/05/18 07:01:28;;;;;;;9.83;3.70;;;;;;;24.44;42.28;98094.47;5052646;28;20433;-72
2022/05/18 07:03:54;;;;;;;7.30;3.10;;;;;;;24.71;42.07;98080.81;5052406;28;20183;-70
2022/05/18 07:06:22;;;;;;;14.47;3.40;;;;;;;24.76;41.69;98084.44;5050110;28;20515;-71
2022/05/18 07:08:48;;;;;;;7.23;3.27;;;;;;;24.77;40.83;98082.59;5051481;28;20436;-71
2022/05/18 07:11:13;;;;;;;4.50;2.70;;;;;;;24.97;40.71;98085.88;5050665;28;20936;-71
2022/05/18 07:13:39;;;;;;;8.00;3.10;;;;;;;25.24;40.99;98092.78;5051356;28;20429;-73
2022/05/18 07:16:05;;;;;;;6.30;2.90;;;;;;;25.48;41.32;98076.81;5050133;28;20277;-72
2022/05/18 07:18:32;;;;;;;3.00;2.70;;;;;;;25.66;40.15;98078.63;5055956;28;20191;-73
2022/05/18 07:20:59;;;;;;;4.33;3.23;;;;;;;25.85;40.13;98082.88;5052672;28;20468;-69
2022/05/18 07:23:25;;;;;;;2.87;2.67;;;;;;;25.73;39.90;98082.03;5051049;28;20524;-72
2022/05/18 07:25:53;;;;;;;6.67;2.90;;;;;;;25.92;39.94;98086.28;5050784;28;20496;-71
2022/05/18 07:28:18;;;;;;;9.63;3.10;;;;;;;26.05;38.98;98084.44;5048965;28;21002;-71
2022/05/18 07:30:44;;;;;;;5.10;3.00;;;;;;;26.25;39.36;98083.31;5062844;28;20429;-73
2022/05/18 07:33:10;;;;;;;5.93;3.07;;;;;;;26.34;39.21;98084.59;5060720;28;20225;-71
2022/05/18 07:35:35;;;;;;;8.77;3.20;;;;;;;26.43;39.02;98072.47;5052897;28;20191;-71
2022/05/18 07:38:01;;;;;;;3.80;2.97;;;;;;;26.40;37.66;98078.28;5054096;28;20467;-71
2022/05/18 07:40:27;;;;;;;9.13;2.97;;;;;;;26.64;37.73;98083.66;5046064;28;20222;-70
2022/05/18 07:42:56;;;;;;;7.07;2.93;;;;;;;26.80;37.83;98088.34;5051113;28;20426;-71
2022/05/18 07:45:23;;;;;;;4.60;2.93;;;;;;;26.97;37.76;98088.41;5048632;28;20297;-71
2022/05/18 07:47:50;;;;;;;6.23;2.90;;;;;;;27.14;37.30;98091.19;5049709;28;20445;-73
2022/05/18 07:50:16;;;;;;;4.40;3.40;;;;;;;27.20;36.71;98084.03;5049644;28;20501;-71
2022/05/18 07:52:43;;;;;;;6.67;3.33;;;;;;;27.32;36.22;98078.63;5050830;28;20529;-70
2022/05/18 07:55:08;;;;;;;4.00;2.73;;;;;;;27.46;36.37;98079.16;5050610;28;20430;-70
2022/05/18 07:57:34;;;;;;;4.43;3.17;;;;;;;27.54;35.88;98075.25;5050666;28;20507;-71
2022/05/18 08:00:00;;;;;;;11.07;3.00;;;;;;;27.67;36.33;98080.34;5038892;28;20220;-72
2022/05/18 08:02:29;;;;;;;7.90;3.10;;;;;;;27.87;36.64;98079.88;5046283;28;20199;-70
2022/05/18 08:04:54;;;;;;;7.70;2.80;;;;;;;27.99;36.51;98079.00;5047135;28;20768;-71
2022/05/18 08:07:20;;;;;;;4.90;3.10;;;;;;;28.00;35.71;98083.31;5037565;28;20533;-73
2022/05/18 08:15:14;;;;;;;3.53;2.90;;;;;;;27.86;35.08;98078.25;5048952;28;20429;-70
2022/05/18 08:17:43;;;;;;;7.07;3.20;;;;;;;27.91;35.37;98085.59;5049094;28;20955;-70
2022/05/18 08:20:13;;;;;;;5.03;2.80;;;;;;;27.64;34.41;98086.22;5050154;28;20461;-70
2022/05/18 08:22:39;;;;;;;8.80;3.00;;;;;;;27.49;35.06;98077.84;5045523;28;20438;-69
2022/05/18 08:25:05;;;;;;;9.07;3.00;;;;;;;27.77;35.34;98076.19;5038403;28;20430;-71
2022/05/18 08:27:31;;;;;;;6.50;3.53;;;;;;;27.72;35.34;98080.41;5049220;28;20478;-71
2022/05/18 08:30:06;;;;;;;7.63;2.97;;;;;;;28.17;35.14;98088.72;5048547;28;20896;-72
2022/05/18 08:32:32;;;;;;;3.73;3.03;;;;;;;28.34;34.69;98083.31;5051202;28;20190;-70
2022/05/18 08:34:58;;;;;;;9.90;3.20;;;;;;;28.63;34.52;98086.72;5055399;28;20432;-71
2022/05/18 08:37:24;;;;;;;6.53;2.90;;;;;;;28.84;34.20;98084.34;5055895;28;20226;-71
2022/05/18 08:39:50;;;;;;;6.70;3.00;;;;;;;29.01;33.51;98092.34;5052022;28;20203;-69
2022/05/18 08:42:16;;;;;;;6.80;3.30;;;;;;;29.00;32.77;98088.03;5051409;28;20433;-72
2022/05/18 08:44:41;;;;;;;4.10;2.43;;;;;;;29.25;33.40;98089.41;5048232;28;20498;-69
2022/05/18 08:47:43;;;;;;;5.87;3.33;;;;;;;29.26;32.82;98083.72;5048489;28;20277;-70
2022/05/18 08:50:13;;;;;;;12.23;3.37;;;;;;;29.52;32.89;98085.94;5047134;28;20275;-70
2022/05/18 08:52:41;;;;;;;7.20;3.43;;;;;;;29.68;32.56;98089.59;5050521;28;20432;-73
2022/05/18 08:55:41;;;;;;;4.77;3.10;;;;;;;29.25;32.06;98084.78;5049876;28;20429;-73
2022/05/18 08:58:15;;;;;;;6.33;3.00;;;;;;;29.47;33.29;98086.69;5049842;28;20414;-70
2022/05/18 09:00:43;;;;;;;6.03;3.30;;;;;;;29.42;32.89;98094.72;5044815;28;20555;-69
2022/05/18 09:03:18;;;;;;;6.73;3.20;;;;;;;29.47;31.37;98092.09;5057896;28;20441;-70
2022/05/18 09:05:53;;;;;;;4.70;2.97;;;;;;;29.69;31.39;98096.63;5048891;28;20429;-70
2022/05/18 09:08:23;;;;;;;4.90;3.00;;;;;;;29.78;31.71;98086.97;5048563;28;20428;-70
2022/05/18 09:11:04;;;;;;;9.23;3.20;;;;;;;29.90;31.40;98081.41;5048846;28;20563;-70
2022/05/18 09:13:30;;;;;;;6.20;3.20;;;;;;;30.16;32.10;98079.75;5042848;28;20451;-71
2022/05/18 09:16:06;;;;;;;4.80;3.00;;;;;;;30.39;31.87;98082.34;5049826;28;20884;-71
2022/05/18 09:18:37;;;;;;;8.37;3.17;;;;;;;30.12;31.21;98084.03;5045332;28;20429;-70
2022/05/18 09:21:32;;;;;;;6.30;2.83;;;;;;;30.42;31.85;98082.63;5052747;28;20497;-71
2022/05/18 09:24:03;;;;;;;9.47;2.70;;;;;;;30.46;31.24;98083.75;5051977;28;20441;-71
2022/05/18 09:26:36;;;;;;;5.37;2.93;;;;;;;30.57;30.09;98089.25;5044932;28;20480;-73
2022/05/18 09:29:11;;;;;;;7.50;2.70;;;;;;;30.48;28.97;98091.59;5035258;28;20962;-70
2022/05/18 09:31:46;;;;;;;3.37;2.10;;;;;;;30.72;28.93;98085.78;5057665;28;20505;-73
2022/05/18 09:34:42;;;;;;;2.53;2.20;;;;;;;31.03;29.66;98086.75;5053798;28;20432;-70
2022/05/18 09:37:13;;;;;;;4.50;2.30;;;;;;;31.27;30.00;98085.50;5052611;28;20457;-72
2022/05/18 09:39:42;;;;;;;5.43;2.60;;;;;;;31.44;28.43;98085.28;5060014;28;20960;-70
2022/05/18 09:42:11;;;;;;;2.83;2.43;;;;;;;31.51;27.90;98085.81;5055853;28;20429;-71
2022/05/18 09:44:50;;;;;;;4.67;2.53;;;;;;;31.61;27.85;98085.88;5051704;28;20456;-71
2022/05/18 09:47:18;;;;;;;6.90;1.80;;;;;;;31.51;26.45;98085.81;5060157;28;20474;-71
2022/05/18 09:49:47;;;;;;;2.23;2.13;;;;;;;31.67;27.56;98089.38;5053475;28;20437;-72
2022/05/18 09:52:13;;;;;;;4.10;2.40;;;;;;;31.85;27.74;98085.38;5051903;28;20920;-72
2022/05/18 09:54:39;;;;;;;3.83;2.27;;;;;;;32.02;26.74;98088.59;5053847;28;20506;-71
2022/05/18 09:57:11;;;;;;;6.50;1.90;;;;;;;32.04;26.19;98084.81;5051561;28;20453;-70
2022/05/18 09:59:42;;;;;;;6.20;2.07;;;;;;;31.95;25.85;98074.53;5052230;28;20205;-71
2022/05/18 10:07:49;;;;;;;4.00;2.20;;;;;;;32.09;27.38;98068.56;5053044;28;21015;-73
2022/05/18 10:10:26;;;;;;;2.30;2.10;;;;;;;32.31;27.78;98060.97;5053246;28;20421;-72
2022/05/18 10:12:54;;;;;;;3.70;2.23;;;;;;;32.30;27.14;98070.19;5053044;28;20942;-73
2022/05/18 10:15:26;;;;;;;4.67;2.13;;;;;;;32.10;26.04;98059.34;5050894;28;20437;-72
2022/05/18 10:18:11;;;;;;;2.93;2.20;;;;;;;32.01;26.31;98057.16;5052981;28;20524;-71
2022/05/18 10:20:37;;;;;;;3.07;2.30;;;;;;;32.01;27.13;98046.31;5045267;28;20825;-71
2022/05/18 10:23:04;;;;;;;3.37;2.67;;;;;;;32.15;27.84;98046.59;5051934;28;20495;-71
2022/05/18 10:25:41;;;;;;;3.40;2.70;;;;;;;32.23;26.41;98052.53;5051311;28;20844;-71
2022/05/18 10:28:19;;;;;;;4.97;1.97;;;;;;;32.39;25.93;98054.16;5034564;28;20428;-71
2022/05/18 10:31:06;;;;;;;2.47;2.10;;;;;;;32.44;25.99;98053.34;5051940;28;20425;-72
2022/05/18 10:33:38;;;;;;;5.57;2.30;;;;;;;32.41;26.32;98052.00;5045244;28;20926;-72
2022/05/18 10:36:16;;;;;;;5.87;2.00;;;;;;;32.56;26.65;98048.44;5051821;28;20544;-72
2022/05/18 10:38:56;;;;;;;3.80;2.30;;;;;;;32.70;25.81;98050.56;5051795;28;20426;-71
2022/05/18 10:41:38;;;;;;;3.57;2.20;;;;;;;31.59;26.09;98050.09;5054080;28;20836;-71
2022/05/18 10:44:06;;;;;;;3.20;2.10;;;;;;;31.79;27.36;98048.50;5050155;28;20525;-71
2022/05/18 10:46:37;;;;;;;4.17;2.67;;;;;;;32.06;27.14;98044.72;5055404;28;20486;-71
2022/05/18 10:49:07;;;;;;;3.77;2.20;;;;;;;32.13;26.94;98046.06;5055470;28;20425;-70
2022/05/18 10:51:38;;;;;;;2.73;2.53;;;;;;;32.41;26.36;98043.03;5051394;28;20422;-72
2022/05/18 10:54:17;;;;;;;3.40;2.70;;;;;;;32.59;26.19;98047.88;5052928;28;20430;-72
2022/05/18 10:56:44;;;;;;;4.17;2.47;;;;;;;32.66;26.28;98044.88;5056328;28;20464;-71
2022/05/18 10:59:38;;;;;;;7.03;2.27;;;;;;;32.93;26.32;98043.72;5052017;28;20461;-74
2022/05/18 11:02:14;;;;;;;4.23;2.20;;;;;;;32.99;25.88;98036.34;5059498;28;20429;-70
2022/05/18 11:04:54;;;;;;;2.40;2.20;;;;;;;32.96;25.13;98045.84;5050888;28;20433;-71
2022/05/18 11:07:26;;;;;;;4.33;2.47;;;;;;;32.82;24.96;98026.66;5050699;28;21044;-71
2022/05/18 11:09:52;;;;;;;4.03;1.97;;;;;;;32.98;23.90;98032.81;5052363;28;20417;-71
2022/05/18 11:12:51;;;;;;;6.80;2.40;;;;;;;32.33;24.95;98025.44;5051504;28;20904;-71
2022/05/18 11:15:24;;;;;;;2.97;2.00;;;;;;;32.74;26.13;98025.28;5049670;28;20642;-71
2022/05/18 11:18:15;;;;;;;3.20;2.20;;;;;;;33.07;25.54;98022.19;5055597;28;20445;-72
2022/05/18 11:21:08;;;;;;;4.63;1.90;;;;;;;33.27;25.28;98018.53;5045678;28;20909;-70
2022/05/18 11:23:47;;;;;;;3.00;2.07;;;;;;;32.67;25.20;98013.13;5044766;28;20444;-73
2022/05/18 11:26:40;;;;;;;2.20;2.00;;;;;;;32.92;25.89;98009.53;5050122;28;20449;-71
2022/05/18 11:29:27;;;;;;;2.60;2.20;;;;;;;33.18;25.79;98017.53;5050406;28;20444;-71
2022/05/18 11:32:05;;;;;;;2.13;1.93;;;;;;;33.32;25.55;98007.66;5058479;28;20436;-72
2022/05/18 11:34:41;;;;;;;3.03;2.53;;;;;;;33.24;25.43;98006.34;5043988;28;20425;-72
2022/05/18 11:37:34;;;;;;;5.53;2.20;;;;;;;33.50;25.27;98008.09;5048841;28;20562;-70
2022/05/18 11:40:45;;;;;;;5.60;2.40;;;;;;;33.61;24.43;97997.97;5054196;28;21008;-71
2022/05/18 11:43:48;;;;;;;2.50;2.30;;;;;;;33.63;24.13;98009.34;5047990;28;20524;-71
2022/05/18 11:46:22;;;;;;;2.57;2.20;;;;;;;33.74;24.60;98000.03;5049350;28;20445;-71
2022/05/18 11:49:07;;;;;;;2.50;2.00;;;;;;;33.85;25.59;97998.00;5051665;28;20429;-70
2022/05/18 11:51:52;;;;;;;2.40;2.00;;;;;;;34.05;24.47;97986.16;5044207;28;20429;-73
2022/05/18 11:54:44;;;;;;;2.43;2.23;;;;;;;34.26;24.10;97986.75;5051161;28;20784;-71
2022/05/18 11:57:28;;;;;;;3.63;1.77;;;;;;;34.27;24.03;97985.66;5050852;28;20445;-70
2022/05/18 12:00:08;;;;;;;2.00;1.80;;;;;;;34.16;23.69;97976.00;5051446;28;20481;-70
2022/05/18 12:02:53;;;;;;;3.37;1.93;;;;;;;33.76;23.50;97983.41;5051069;28;20444;-70